BEL4MY EBBR-DIAP
Flight info
| Callsign | BEL4MY |
|---|---|
| Flight time | N/A |
| Altitude | 33000 |
| Route | CIV N872 LESDO DCT KOVIN DCT DUCRA/N0476F370 UM728 RESMI UN857 DISAK DCT DIRMO DCT ETAMO DCT ADEKA/N0474F390 DCT MOKDI DCT MEN DCT BADAM DCT KANIG DCT KENAS N855 GENIO N859 MOGIL UZ333 ZEM/N0467F400 UZ333 KAHIL UB726 GHA/N0470F390 UA615 TMS UA604 EREBO/N0472F400 UY212 DAMNA DCT NY UG855 TUSEK TUSEK1S |
| Aircraft | A333/H-SDE3GHIJ2J3J5M1RVWXY/LB2D1 |
Departure
| Time | N/A |
|---|---|
| Airport | Brussels Airport (EBBR) |
Arrival
| Time | 2026-05-05 02:20 |
|---|---|
| Airport | Félix-Houphouët-Boigny International Airport (DIAP) |
| Time | Latitude | Longitude | Altitude | Speed | Heading |
|---|---|---|---|---|---|
| 2026-05-05 01:06 | 12.16165 | 1.19938 | 38923 ft | 458 kts | 219° |
| 2026-05-05 01:07 | 12.11044 | 1.16055 | 38916 ft | 458 kts | 219° |
| 2026-05-05 01:07 | 12.05946 | 1.12196 | 38927 ft | 458 kts | 219° |
| 2026-05-05 01:08 | 12.00820 | 1.08321 | 38921 ft | 458 kts | 219° |
| 2026-05-05 01:08 | 11.95691 | 1.04449 | 38933 ft | 459 kts | 219° |
| 2026-05-05 01:09 | 11.90543 | 1.00563 | 38934 ft | 460 kts | 219° |
| 2026-05-05 01:09 | 11.85434 | 0.96706 | 38934 ft | 460 kts | 219° |
| 2026-05-05 01:10 | 11.80285 | 0.92822 | 38935 ft | 460 kts | 219° |
| 2026-05-05 01:10 | 11.75136 | 0.88940 | 38928 ft | 460 kts | 219° |
| 2026-05-05 01:11 | 11.69992 | 0.85063 | 38933 ft | 460 kts | 219° |
| 2026-05-05 01:11 | 11.64839 | 0.81182 | 38933 ft | 460 kts | 219° |
| 2026-05-05 01:12 | 11.59687 | 0.77302 | 38944 ft | 460 kts | 219° |
| 2026-05-05 01:12 | 11.54528 | 0.73421 | 38939 ft | 461 kts | 219° |
| 2026-05-05 01:13 | 11.49367 | 0.69538 | 38943 ft | 460 kts | 219° |
| 2026-05-05 01:13 | 11.44241 | 0.65681 | 38944 ft | 461 kts | 218° |
| 2026-05-05 01:14 | 11.39081 | 0.61802 | 38943 ft | 461 kts | 218° |
| 2026-05-05 01:14 | 11.33914 | 0.57917 | 38943 ft | 461 kts | 218° |
| 2026-05-05 01:15 | 11.28750 | 0.54042 | 38942 ft | 461 kts | 218° |
| 2026-05-05 01:15 | 11.23578 | 0.50164 | 38946 ft | 461 kts | 218° |
| 2026-05-05 01:16 | 11.18415 | 0.46291 | 38949 ft | 461 kts | 218° |
| 2026-05-05 01:16 | 11.13253 | 0.42419 | 38951 ft | 461 kts | 218° |
| 2026-05-05 01:17 | 11.08075 | 0.38536 | 38952 ft | 462 kts | 218° |
| 2026-05-05 01:17 | 11.02904 | 0.34664 | 38952 ft | 462 kts | 218° |
| 2026-05-05 01:18 | 10.97984 | 0.30489 | 38954 ft | 460 kts | 224° |
| 2026-05-05 01:18 | 10.93319 | 0.26023 | 38954 ft | 460 kts | 225° |
| 2026-05-05 01:19 | 10.88700 | 0.21508 | 38952 ft | 460 kts | 226° |
| 2026-05-05 01:19 | 10.84077 | 0.16989 | 38952 ft | 460 kts | 225° |
| 2026-05-05 01:20 | 10.79480 | 0.12508 | 38953 ft | 461 kts | 225° |
| 2026-05-05 01:20 | 10.74840 | 0.07999 | 38952 ft | 462 kts | 225° |
| 2026-05-05 01:21 | 10.70195 | 0.03491 | 38947 ft | 462 kts | 225° |
| 2026-05-05 01:21 | 10.65541 | -0.01021 | 38945 ft | 462 kts | 225° |
| 2026-05-05 01:22 | 10.60544 | -0.05188 | 38946 ft | 466 kts | 219° |
| 2026-05-05 01:22 | 10.55374 | -0.09211 | 38942 ft | 469 kts | 219° |
| 2026-05-05 01:23 | 10.50164 | -0.13213 | 38932 ft | 469 kts | 219° |
| 2026-05-05 01:23 | 10.44985 | -0.17193 | 38936 ft | 469 kts | 219° |
| 2026-05-05 01:24 | 10.39783 | -0.21198 | 38935 ft | 469 kts | 219° |
| 2026-05-05 01:24 | 10.34586 | -0.25202 | 38933 ft | 469 kts | 219° |
| 2026-05-05 01:25 | 10.29377 | -0.29212 | 38929 ft | 469 kts | 219° |
| 2026-05-05 01:25 | 10.24167 | -0.33221 | 38932 ft | 469 kts | 218° |
| 2026-05-05 01:26 | 10.18959 | -0.37228 | 38914 ft | 469 kts | 219° |
| 2026-05-05 01:26 | 10.13752 | -0.41232 | 38914 ft | 469 kts | 218° |
| 2026-05-05 01:27 | 10.08575 | -0.45217 | 38932 ft | 470 kts | 219° |
| 2026-05-05 01:27 | 10.03375 | -0.49232 | 38911 ft | 470 kts | 219° |
| 2026-05-05 01:28 | 9.98177 | -0.53250 | 38915 ft | 470 kts | 218° |
| 2026-05-05 01:28 | 9.92966 | -0.57272 | 38914 ft | 472 kts | 218° |
| 2026-05-05 01:29 | 9.87739 | -0.61306 | 38914 ft | 472 kts | 218° |
| 2026-05-05 01:29 | 9.82509 | -0.65340 | 38915 ft | 472 kts | 218° |
| 2026-05-05 01:30 | 9.77277 | -0.69375 | 38913 ft | 472 kts | 218° |
| 2026-05-05 01:30 | 9.72049 | -0.73407 | 38919 ft | 472 kts | 218° |
| 2026-05-05 01:31 | 9.66807 | -0.77445 | 38913 ft | 472 kts | 218° |
| 2026-05-05 01:31 | 9.61570 | -0.81472 | 38913 ft | 473 kts | 218° |
| 2026-05-05 01:32 | 9.56309 | -0.85467 | 38914 ft | 473 kts | 216° |
| 2026-05-05 01:32 | 9.50837 | -0.89182 | 38918 ft | 473 kts | 214° |
| 2026-05-05 01:33 | 9.45300 | -0.92792 | 38918 ft | 473 kts | 213° |
| 2026-05-05 01:33 | 9.39779 | -0.96412 | 38915 ft | 473 kts | 214° |
| 2026-05-05 01:34 | 9.34297 | -1.00043 | 38920 ft | 473 kts | 214° |
| 2026-05-05 01:34 | 9.28815 | -1.03688 | 38916 ft | 473 kts | 214° |
| 2026-05-05 01:35 | 9.23309 | -1.07344 | 38915 ft | 474 kts | 214° |
| 2026-05-05 01:35 | 9.17789 | -1.11005 | 38916 ft | 474 kts | 214° |
| 2026-05-05 01:36 | 9.12276 | -1.14662 | 38914 ft | 474 kts | 214° |
| 2026-05-05 01:36 | 9.06756 | -1.18322 | 38915 ft | 474 kts | 214° |
| 2026-05-05 01:37 | 9.01239 | -1.21981 | 38920 ft | 474 kts | 214° |
| 2026-05-05 01:37 | 8.95712 | -1.25643 | 38894 ft | 475 kts | 214° |
| 2026-05-05 01:38 | 8.90182 | -1.29305 | 38894 ft | 475 kts | 214° |
| 2026-05-05 01:38 | 8.84645 | -1.32970 | 38899 ft | 475 kts | 214° |
| 2026-05-05 01:39 | 8.79115 | -1.36631 | 38899 ft | 476 kts | 214° |
| 2026-05-05 01:39 | 8.73578 | -1.40296 | 38897 ft | 476 kts | 214° |
| 2026-05-05 01:40 | 8.68031 | -1.43963 | 38898 ft | 476 kts | 214° |
| 2026-05-05 01:40 | 8.62480 | -1.47629 | 38907 ft | 477 kts | 214° |
| 2026-05-05 01:41 | 8.56930 | -1.51296 | 38905 ft | 477 kts | 214° |
| 2026-05-05 01:41 | 8.51400 | -1.54947 | 38914 ft | 477 kts | 214° |
| 2026-05-05 01:42 | 8.45841 | -1.58620 | 38913 ft | 478 kts | 214° |
| 2026-05-05 01:42 | 8.40280 | -1.62288 | 38914 ft | 478 kts | 214° |
| 2026-05-05 01:43 | 8.34714 | -1.65956 | 38914 ft | 478 kts | 214° |
| 2026-05-05 01:43 | 8.29140 | -1.69633 | 38914 ft | 478 kts | 214° |
| 2026-05-05 01:44 | 8.24476 | -1.72708 | 38932 ft | 478 kts | 214° |
| 2026-05-05 01:44 | 8.18901 | -1.76384 | 38916 ft | 478 kts | 214° |
| 2026-05-05 01:45 | 8.13327 | -1.80057 | 38931 ft | 479 kts | 214° |
| 2026-05-05 01:45 | 8.07804 | -1.83694 | 38930 ft | 478 kts | 214° |
| 2026-05-05 01:46 | 8.02225 | -1.87367 | 38930 ft | 479 kts | 214° |
| 2026-05-05 01:46 | 7.96645 | -1.91040 | 38936 ft | 479 kts | 214° |
| 2026-05-05 01:47 | 7.91071 | -1.94709 | 38935 ft | 478 kts | 214° |
| 2026-05-05 01:47 | 7.85486 | -1.98382 | 38938 ft | 479 kts | 214° |
| 2026-05-05 01:48 | 7.79905 | -2.02053 | 38943 ft | 479 kts | 214° |
| 2026-05-05 01:48 | 7.74327 | -2.05720 | 38941 ft | 479 kts | 214° |
| 2026-05-05 01:49 | 7.68785 | -2.09364 | 38941 ft | 478 kts | 214° |
| 2026-05-05 01:49 | 7.63211 | -2.13026 | 38943 ft | 478 kts | 214° |
| 2026-05-05 01:50 | 7.57633 | -2.16690 | 38940 ft | 478 kts | 214° |
| 2026-05-05 01:50 | 7.52055 | -2.20352 | 38954 ft | 478 kts | 214° |
| 2026-05-05 01:51 | 7.46509 | -2.23992 | 38954 ft | 478 kts | 214° |
| 2026-05-05 01:51 | 7.40940 | -2.27647 | 38952 ft | 477 kts | 214° |
| 2026-05-05 01:52 | 7.35563 | -2.31553 | 38951 ft | 476 kts | 219° |
| 2026-05-05 01:52 | 7.30375 | -2.35696 | 38951 ft | 476 kts | 220° |
| 2026-05-05 01:53 | 7.25202 | -2.39862 | 38952 ft | 475 kts | 220° |
| 2026-05-05 01:53 | 7.20072 | -2.43998 | 38954 ft | 475 kts | 220° |
| 2026-05-05 01:54 | 7.14915 | -2.48156 | 38953 ft | 475 kts | 220° |
| 2026-05-05 01:54 | 7.09757 | -2.52314 | 38952 ft | 475 kts | 220° |
| 2026-05-05 01:55 | 7.04596 | -2.56473 | 38952 ft | 474 kts | 220° |
| 2026-05-05 01:55 | 6.99444 | -2.60623 | 38954 ft | 474 kts | 220° |
| 2026-05-05 01:56 | 6.94291 | -2.64774 | 38733 ft | 472 kts | 220° |
| 2026-05-05 01:56 | 6.91761 | -2.66812 | 38213 ft | 461 kts | 220° |
| 2026-05-05 01:56 | 6.89284 | -2.68806 | 37680 ft | 449 kts | 220° |
| 2026-05-05 01:57 | 6.86877 | -2.70743 | 37116 ft | 440 kts | 220° |
| 2026-05-05 01:57 | 6.84482 | -2.72671 | 36537 ft | 442 kts | 220° |
| 2026-05-05 01:57 | 6.82070 | -2.74613 | 35982 ft | 446 kts | 220° |
| 2026-05-05 01:57 | 6.79636 | -2.76573 | 35345 ft | 449 kts | 220° |
| 2026-05-05 01:58 | 6.77191 | -2.78544 | 34699 ft | 453 kts | 220° |
| 2026-05-05 01:58 | 6.74721 | -2.80530 | 33991 ft | 457 kts | 220° |
| 2026-05-05 01:58 | 6.72228 | -2.82535 | 33197 ft | 461 kts | 220° |
| 2026-05-05 01:58 | 6.69706 | -2.84563 | 32342 ft | 464 kts | 220° |
| 2026-05-05 01:59 | 6.67174 | -2.86598 | 31479 ft | 467 kts | 220° |
| 2026-05-05 01:59 | 6.64669 | -2.88611 | 30592 ft | 469 kts | 219° |
| 2026-05-05 01:59 | 6.62112 | -2.90666 | 29693 ft | 469 kts | 219° |
| 2026-05-05 01:59 | 6.59569 | -2.92708 | 29128 ft | 465 kts | 219° |
| 2026-05-05 02:00 | 6.57078 | -2.94710 | 28561 ft | 455 kts | 219° |
| 2026-05-05 02:00 | 6.54603 | -2.96699 | 27960 ft | 456 kts | 219° |
| 2026-05-05 02:00 | 6.52127 | -2.98689 | 27353 ft | 455 kts | 219° |
| 2026-05-05 02:00 | 6.49664 | -3.00668 | 26758 ft | 452 kts | 218° |
| 2026-05-05 02:01 | 6.47215 | -3.02634 | 26156 ft | 448 kts | 218° |
| 2026-05-05 02:01 | 6.44787 | -3.04584 | 25564 ft | 445 kts | 218° |
| 2026-05-05 02:01 | 6.42379 | -3.06519 | 24959 ft | 442 kts | 218° |
| 2026-05-05 02:01 | 6.39986 | -3.08443 | 24359 ft | 439 kts | 218° |
| 2026-05-05 02:02 | 6.37608 | -3.10351 | 23761 ft | 436 kts | 218° |
| 2026-05-05 02:02 | 6.35247 | -3.12247 | 23155 ft | 432 kts | 218° |
| 2026-05-05 02:02 | 6.32906 | -3.14125 | 22549 ft | 429 kts | 217° |
| 2026-05-05 02:02 | 6.30580 | -3.15991 | 21952 ft | 427 kts | 217° |
| 2026-05-05 02:03 | 6.28267 | -3.17846 | 21368 ft | 424 kts | 217° |
| 2026-05-05 02:03 | 6.25928 | -3.19631 | 20728 ft | 420 kts | 215° |
| 2026-05-05 02:03 | 6.23583 | -3.21367 | 20094 ft | 417 kts | 214° |
| 2026-05-05 02:03 | 6.21249 | -3.23088 | 19535 ft | 415 kts | 214° |
| 2026-05-05 02:04 | 6.18927 | -3.24801 | 18943 ft | 413 kts | 214° |
| 2026-05-05 02:04 | 6.16650 | -3.26483 | 18377 ft | 410 kts | 214° |
| 2026-05-05 02:04 | 6.14366 | -3.28171 | 17810 ft | 407 kts | 214° |
| 2026-05-05 02:04 | 6.12090 | -3.29852 | 17225 ft | 405 kts | 214° |
| 2026-05-05 02:05 | 6.09833 | -3.31522 | 16677 ft | 401 kts | 214° |
| 2026-05-05 02:05 | 6.07590 | -3.33181 | 16115 ft | 398 kts | 214° |
| 2026-05-05 02:05 | 6.05368 | -3.34822 | 15540 ft | 395 kts | 214° |
| 2026-05-05 02:05 | 6.03164 | -3.36451 | 14981 ft | 392 kts | 213° |
| 2026-05-05 02:06 | 6.00977 | -3.38067 | 14420 ft | 389 kts | 214° |
| 2026-05-05 02:06 | 5.98805 | -3.39674 | 13864 ft | 386 kts | 213° |
| 2026-05-05 02:06 | 5.96649 | -3.41265 | 13304 ft | 384 kts | 213° |
| 2026-05-05 02:06 | 5.94501 | -3.42851 | 12739 ft | 381 kts | 213° |
| 2026-05-05 02:07 | 5.92376 | -3.44421 | 12201 ft | 379 kts | 213° |
| 2026-05-05 02:07 | 5.90261 | -3.45983 | 11649 ft | 376 kts | 213° |
| 2026-05-05 02:07 | 5.88158 | -3.47535 | 11096 ft | 373 kts | 213° |
| 2026-05-05 02:07 | 5.86100 | -3.49054 | 10770 ft | 355 kts | 214° |
| 2026-05-05 02:08 | 5.84205 | -3.50458 | 10713 ft | 323 kts | 214° |
| 2026-05-05 02:08 | 5.82465 | -3.51748 | 10606 ft | 300 kts | 214° |
| 2026-05-05 02:08 | 5.80812 | -3.52969 | 10464 ft | 295 kts | 213° |
| 2026-05-05 02:08 | 5.79172 | -3.54175 | 10325 ft | 297 kts | 214° |
| 2026-05-05 02:09 | 5.77506 | -3.55403 | 10197 ft | 297 kts | 214° |
| 2026-05-05 02:09 | 5.75841 | -3.56631 | 9948 ft | 296 kts | 214° |
| 2026-05-05 02:09 | 5.74190 | -3.57849 | 9553 ft | 293 kts | 214° |
| 2026-05-05 02:09 | 5.72547 | -3.59060 | 9201 ft | 292 kts | 215° |
| 2026-05-05 02:10 | 5.70910 | -3.60268 | 8863 ft | 291 kts | 215° |
| 2026-05-05 02:10 | 5.69285 | -3.61467 | 8511 ft | 289 kts | 215° |
| 2026-05-05 02:10 | 5.67671 | -3.62659 | 8171 ft | 287 kts | 215° |
| 2026-05-05 02:10 | 5.66067 | -3.63843 | 7831 ft | 286 kts | 215° |
| 2026-05-05 02:11 | 5.64465 | -3.65025 | 7491 ft | 285 kts | 215° |
| 2026-05-05 02:11 | 5.62863 | -3.66205 | 7138 ft | 285 kts | 215° |
| 2026-05-05 02:11 | 5.61249 | -3.67396 | 6937 ft | 292 kts | 215° |
| 2026-05-05 02:11 | 5.59597 | -3.68615 | 6900 ft | 295 kts | 215° |
| 2026-05-05 02:12 | 5.58034 | -3.69958 | 6886 ft | 297 kts | 229° |
| 2026-05-05 02:12 | 5.55945 | -3.73479 | 6087 ft | 296 kts | 243° |
| 2026-05-05 02:12 | 5.55013 | -3.75313 | 5724 ft | 293 kts | 243° |
| 2026-05-05 02:13 | 5.54087 | -3.77122 | 5363 ft | 290 kts | 242° |
| 2026-05-05 02:13 | 5.53164 | -3.78913 | 4978 ft | 288 kts | 242° |
| 2026-05-05 02:13 | 5.52233 | -3.80677 | 4530 ft | 286 kts | 238° |
| 2026-05-05 02:13 | 5.50919 | -3.82149 | 4059 ft | 280 kts | 216° |
| 2026-05-05 02:14 | 5.49315 | -3.83082 | 3721 ft | 251 kts | 202° |
| 2026-05-05 02:14 | 5.47782 | -3.83682 | 3388 ft | 221 kts | 199° |
| 2026-05-05 02:14 | 5.46400 | -3.84228 | 3203 ft | 212 kts | 200° |
| 2026-05-05 02:14 | 5.45026 | -3.84776 | 3035 ft | 213 kts | 200° |
| 2026-05-05 02:15 | 5.43664 | -3.85327 | 3003 ft | 205 kts | 200° |
| 2026-05-05 02:15 | 5.42444 | -3.85832 | 3015 ft | 175 kts | 201° |
| 2026-05-05 02:15 | 5.41409 | -3.86264 | 3002 ft | 149 kts | 200° |
| 2026-05-05 02:15 | 5.40506 | -3.86644 | 2839 ft | 134 kts | 200° |
| 2026-05-05 02:16 | 5.39672 | -3.86988 | 2664 ft | 128 kts | 200° |
| 2026-05-05 02:16 | 5.38845 | -3.87327 | 2472 ft | 128 kts | 201° |
| 2026-05-05 02:16 | 5.38021 | -3.87669 | 2309 ft | 128 kts | 201° |
| 2026-05-05 02:16 | 5.37197 | -3.88010 | 2130 ft | 128 kts | 202° |
| 2026-05-05 02:17 | 5.36372 | -3.88351 | 1957 ft | 128 kts | 202° |
| 2026-05-05 02:17 | 5.35559 | -3.88686 | 1783 ft | 128 kts | 202° |
| 2026-05-05 02:17 | 5.34736 | -3.89027 | 1620 ft | 128 kts | 202° |
| 2026-05-05 02:17 | 5.33915 | -3.89367 | 1443 ft | 128 kts | 202° |
| 2026-05-05 02:18 | 5.33090 | -3.89708 | 1275 ft | 128 kts | 202° |
| 2026-05-05 02:18 | 5.32266 | -3.90049 | 1099 ft | 128 kts | 202° |
| 2026-05-05 02:18 | 5.31441 | -3.90389 | 932 ft | 128 kts | 202° |
| 2026-05-05 02:18 | 5.30620 | -3.90729 | 765 ft | 128 kts | 203° |
| 2026-05-05 02:19 | 5.29801 | -3.91067 | 595 ft | 127 kts | 202° |
| 2026-05-05 02:19 | 5.28978 | -3.91407 | 417 ft | 128 kts | 202° |
| 2026-05-05 02:19 | 5.28157 | -3.91746 | 255 ft | 128 kts | 202° |
| 2026-05-05 02:19 | 5.27334 | -3.92091 | 108 ft | 129 kts | 203° |
| 2026-05-05 02:20 | 5.26536 | -3.92414 | 29 ft | 109 kts | 202° |
| 2026-05-05 02:20 | 5.26097 | -3.92601 | 32 ft | 34 kts | 201° |
| 2026-05-05 02:20 | 5.25925 | -3.92668 | 33 ft | 18 kts | 202° |
| 2026-05-05 02:20 | 5.25813 | -3.92715 | 33 ft | 18 kts | 205° |
| 2026-05-05 02:21 | 5.25688 | -3.92769 | 32 ft | 21 kts | 203° |
| 2026-05-05 02:21 | 5.25566 | -3.92820 | 33 ft | 14 kts | 202° |
| 2026-05-05 02:21 | 5.25484 | -3.92877 | 33 ft | 15 kts | 238° |
| 2026-05-05 02:21 | 5.25496 | -3.92980 | 33 ft | 15 kts | 287° |
| 2026-05-05 02:22 | 5.25469 | -3.93050 | 34 ft | 11 kts | 221° |
| 2026-05-05 02:22 | 5.25423 | -3.93089 | 34 ft | 9 kts | 225° |
| 2026-05-05 02:22 | 5.25419 | -3.93117 | 34 ft | 4 kts | 293° |
| 2026-05-05 02:22 | 5.25448 | -3.93144 | 35 ft | 7 kts | 321° |
| 2026-05-05 02:23 | 5.25470 | -3.93161 | 35 ft | 0 kts | 323° |
| 2026-05-05 02:23 | 5.25483 | -3.93174 | 35 ft | 0 kts | 276° |
| 2026-05-05 02:24 | 5.25300 | -3.93235 | 35 ft | 0 kts | 292° |